Time;durP1;ratioP1;P1;durP2;ratioP2;P2;SDS_P1;SDS_P2;PMS_P1;PMS_P2;Temp;Humidity;BMP_temperature;BMP_pressure;BME280_temperature;BME280_humidity;BME280_pressure;Samples;Min_cycle;Max_cycle;Signal;HPM_P1;HPM_P2
2022/01/09 00:01:23;;;;;;;32.00;15.07;;;;;;;1.63;100.00;89989.16;5030539;28;20492;-68
2022/01/09 00:03:49;;;;;;;32.85;17.70;;;;;;;1.61;100.00;89988.66;5030448;28;20522;-68
2022/01/09 00:06:14;;;;;;;35.10;16.55;;;;;;;1.58;100.00;89998.88;5030351;28;20049;-68
2022/01/09 00:08:40;;;;;;;34.25;15.77;;;;;;;1.53;100.00;89998.94;5030508;28;20025;-68
2022/01/09 00:11:06;;;;;;;30.80;15.88;;;;;;;1.52;100.00;89994.78;5032503;28;20037;-68
2022/01/09 00:13:32;;;;;;;27.30;13.98;;;;;;;1.60;100.00;90008.06;5034134;28;20022;-68
2022/01/09 00:15:57;;;;;;;25.38;12.43;;;;;;;1.69;100.00;90010.84;5034218;28;20107;-68
2022/01/09 00:18:23;;;;;;;24.48;11.73;;;;;;;1.65;100.00;90009.84;5034134;28;20064;-68
2022/01/09 00:20:48;;;;;;;27.58;13.85;;;;;;;1.62;100.00;90008.56;5034096;28;20043;-68
2022/01/09 00:23:14;;;;;;;27.65;13.35;;;;;;;1.58;100.00;89998.88;5034005;28;20025;-68
2022/01/09 00:25:40;;;;;;;24.63;13.10;;;;;;;1.71;100.00;90003.47;5034043;28;20183;-68
2022/01/09 00:28:05;;;;;;;28.45;14.50;;;;;;;1.76;100.00;90006.06;5033913;28;20021;-68
2022/01/09 00:30:31;;;;;;;34.40;18.27;;;;;;;1.73;100.00;90002.16;5033901;28;20056;-68
2022/01/09 00:32:57;;;;;;;46.97;24.33;;;;;;;1.86;100.00;90000.69;5033764;28;20083;-68
2022/01/09 00:35:23;;;;;;;33.92;18.48;;;;;;;1.90;100.00;90001.72;5033882;28;20029;-68
2022/01/09 00:37:49;;;;;;;34.40;16.40;;;;;;;1.95;100.00;90014.78;5033867;28;20108;-68
2022/01/09 00:40:15;;;;;;;34.17;16.33;;;;;;;1.97;100.00;90007.41;5033753;28;20033;-68
2022/01/09 00:42:41;;;;;;;31.10;16.02;;;;;;;2.10;100.00;90013.84;5033659;28;20109;-68
2022/01/09 00:45:08;;;;;;;33.42;17.98;;;;;;;2.09;100.00;90012.28;5033906;28;20502;-68
2022/01/09 00:47:33;;;;;;;39.28;19.20;;;;;;;2.01;100.00;89997.91;5033911;28;20033;-68
2022/01/09 00:49:59;;;;;;;41.53;21.58;;;;;;;1.96;100.00;89997.19;5033560;28;20103;-68
2022/01/09 00:52:24;;;;;;;46.90;21.95;;;;;;;1.85;100.00;89991.28;5033404;28;20033;-68
2022/01/09 00:54:50;;;;;;;37.00;19.90;;;;;;;1.79;100.00;89990.56;5033509;28;20049;-68
2022/01/09 00:57:15;;;;;;;33.38;16.23;;;;;;;1.68;100.00;89994.34;5033422;28;20018;-69
2022/01/09 00:59:41;;;;;;;31.98;15.63;;;;;;;1.79;100.00;89992.41;5033438;28;20026;-68
2022/01/09 01:02:07;;;;;;;26.83;14.82;;;;;;;1.88;100.00;89982.84;5033278;28;20017;-68
2022/01/09 01:04:32;;;;;;;26.80;14.40;;;;;;;1.80;100.00;89992.13;5033166;28;20028;-68
2022/01/09 01:06:58;;;;;;;25.50;14.13;;;;;;;1.67;100.00;89978.88;5033215;28;20033;-68
2022/01/09 01:09:25;;;;;;;30.15;14.85;;;;;;;1.50;100.00;89964.38;5033277;28;20040;-68
2022/01/09 01:11:51;;;;;;;28.17;15.10;;;;;;;1.52;100.00;89963.31;5033184;28;20029;-68
2022/01/09 01:14:21;;;;;;;33.40;16.13;;;;;;;1.46;100.00;89955.53;5033053;28;20518;-69
2022/01/09 01:16:48;;;;;;;30.92;15.70;;;;;;;1.49;100.00;89968.06;5033128;28;20044;-69
2022/01/09 01:19:13;;;;;;;31.77;16.48;;;;;;;1.55;100.00;89968.00;5033098;28;20495;-68
2022/01/09 01:21:39;;;;;;;28.83;16.27;;;;;;;1.55;100.00;89965.38;5032443;28;20112;-69
2022/01/09 01:24:05;;;;;;;30.50;16.05;;;;;;;1.63;100.00;89970.03;5032809;28;20036;-68
2022/01/09 01:26:30;;;;;;;28.65;14.85;;;;;;;1.68;100.00;89967.34;5015246;28;20108;-69
2022/01/09 01:28:56;;;;;;;32.30;16.35;;;;;;;1.61;100.00;89962.44;5032974;28;20030;-68
2022/01/09 01:31:21;;;;;;;30.40;16.00;;;;;;;1.54;100.00;89971.69;5032769;28;20032;-69
2022/01/09 01:33:47;;;;;;;29.25;15.50;;;;;;;1.36;100.00;89955.59;5032716;28;20017;-68
2022/01/09 01:36:12;;;;;;;28.88;15.85;;;;;;;1.57;100.00;89971.13;5032731;28;20025;-68
2022/01/09 01:38:38;;;;;;;26.85;15.18;;;;;;;1.48;100.00;89961.25;5032765;28;20057;-69
2022/01/09 01:41:03;;;;;;;29.25;15.07;;;;;;;1.35;100.00;89954.03;5032806;28;20041;-69
2022/01/09 01:43:29;;;;;;;28.55;14.57;;;;;;;1.40;100.00;89956.59;5032537;28;20549;-69
2022/01/09 01:45:54;;;;;;;25.05;13.38;;;;;;;1.38;100.00;89953.50;5032604;28;20028;-69
2022/01/09 01:48:20;;;;;;;20.90;10.75;;;;;;;1.38;100.00;89945.63;5032372;28;20037;-68
2022/01/09 01:50:47;;;;;;;21.88;11.55;;;;;;;1.44;100.00;89939.28;5032486;28;20025;-69
2022/01/09 01:53:19;;;;;;;19.70;11.43;;;;;;;1.45;100.00;89929.59;5014502;28;20083;-69
2022/01/09 01:55:51;;;;;;;21.13;12.23;;;;;;;1.41;100.00;89931.97;5032328;28;20033;-69
2022/01/09 01:58:17;;;;;;;22.63;12.32;;;;;;;1.47;100.00;89936.13;5032294;28;20029;-69
2022/01/09 02:00:42;;;;;;;24.83;13.48;;;;;;;1.48;100.00;89929.03;5032336;28;20026;-69
2022/01/09 02:03:09;;;;;;;24.48;13.05;;;;;;;1.65;100.00;89918.09;5032154;28;20045;-69
2022/01/09 02:05:35;;;;;;;24.30;13.48;;;;;;;1.56;100.00;89904.03;5032032;28;20088;-69
2022/01/09 02:08:02;;;;;;;24.98;12.10;;;;;;;1.56;100.00;89919.75;5032178;28;20029;-69
2022/01/09 02:10:28;;;;;;;21.27;11.88;;;;;;;1.55;100.00;89912.97;5014325;28;20026;-69
2022/01/09 02:12:56;;;;;;;22.52;12.43;;;;;;;1.54;100.00;89911.41;5031906;28;20032;-69
2022/01/09 02:15:25;;;;;;;28.20;14.30;;;;;;;1.52;100.00;89916.16;5032046;28;20048;-69
2022/01/09 02:17:50;;;;;;;17.58;10.27;;;;;;;1.70;100.00;89908.34;5031873;28;20036;-69
2022/01/09 02:20:16;;;;;;;22.17;11.50;;;;;;;1.75;100.00;89910.91;5031969;28;20038;-69
2022/01/09 02:22:42;;;;;;;23.83;12.68;;;;;;;1.59;100.00;89885.94;5031780;28;20021;-69
2022/01/09 02:25:07;;;;;;;18.77;9.32;;;;;;;1.68;100.00;89891.31;5031774;28;20530;-68
2022/01/09 02:27:33;;;;;;;19.85;9.65;;;;;;;1.64;100.00;89888.50;5031767;28;20061;-69
2022/01/09 02:29:58;;;;;;;21.92;9.23;;;;;;;1.58;100.00;89889.63;5031645;28;20048;-69
2022/01/09 02:32:24;;;;;;;22.80;10.93;;;;;;;1.49;100.00;89886.03;5031126;28;20025;-69
2022/01/09 02:34:50;;;;;;;19.67;11.07;;;;;;;1.60;100.00;89889.34;5031271;28;20036;-69
2022/01/09 02:37:16;;;;;;;16.95;9.60;;;;;;;1.67;100.00;89889.78;5031679;28;20403;-69
2022/01/09 02:39:41;;;;;;;17.50;10.23;;;;;;;1.72;100.00;89900.19;5031555;28;20538;-69
2022/01/09 02:42:17;;;;;;;16.83;10.23;;;;;;;1.77;100.00;89893.06;5031364;28;20120;-69
2022/01/09 02:44:43;;;;;;;19.02;10.48;;;;;;;1.84;100.00;89879.59;5031478;28;20116;-68
2022/01/09 02:47:09;;;;;;;18.55;10.52;;;;;;;1.90;100.00;89875.88;5031435;28;20117;-69
2022/01/09 02:49:35;;;;;;;17.17;10.15;;;;;;;1.86;100.00;89868.81;5031463;28;20053;-69
2022/01/09 02:52:09;;;;;;;15.32;9.45;;;;;;;1.94;100.00;89876.06;5031185;28;20084;-69
2022/01/09 02:57:18;;;;;;;18.10;10.90;;;;;;;1.94;100.00;89876.06;5031269;28;20506;-69
2022/01/09 02:59:44;;;;;;;14.70;9.13;;;;;;;1.87;100.00;89862.50;5031248;28;20034;-69
2022/01/09 03:02:09;;;;;;;14.05;8.00;;;;;;;1.77;100.00;89860.81;5031118;28;20457;-69
2022/01/09 03:04:35;;;;;;;17.38;9.68;;;;;;;1.85;100.00;89857.56;5030892;28;20071;-69
2022/01/09 03:07:00;;;;;;;16.42;10.82;;;;;;;1.87;100.00;89865.13;5031143;28;20036;-69
2022/01/09 03:09:26;;;;;;;15.10;9.23;;;;;;;1.88;100.00;89851.72;5031181;28;20563;-69
2022/01/09 03:11:51;;;;;;;17.52;10.15;;;;;;;1.85;100.00;89859.38;5029971;28;20136;-70
2022/01/09 03:14:17;;;;;;;15.50;9.27;;;;;;;1.79;100.00;89843.75;5030840;28;20033;-70
2022/01/09 03:16:43;;;;;;;16.52;10.27;;;;;;;1.78;100.00;89851.88;5030943;28;20392;-70
2022/01/09 03:19:08;;;;;;;19.55;10.00;;;;;;;1.67;100.00;89839.97;5031078;28;20037;-70
2022/01/09 03:21:34;;;;;;;14.13;9.30;;;;;;;1.80;100.00;89844.50;5029587;28;20037;-70
2022/01/09 03:24:00;;;;;;;14.07;8.35;;;;;;;1.79;100.00;89846.34;5030801;28;20033;-70
2022/01/09 03:26:25;;;;;;;15.30;8.90;;;;;;;1.66;100.00;89843.66;5030869;28;20117;-70
2022/01/09 03:28:51;;;;;;;17.48;9.07;;;;;;;1.48;100.00;89848.56;5030884;28;20531;-70
2022/01/09 03:31:16;;;;;;;12.60;7.55;;;;;;;1.39;100.00;89845.00;5030899;28;20037;-70
2022/01/09 03:33:42;;;;;;;14.65;9.02;;;;;;;1.29;100.00;89828.63;5030770;28;20060;-70
2022/01/09 03:36:07;;;;;;;15.63;9.43;;;;;;;1.18;100.00;89833.97;5030795;28;20411;-70
2022/01/09 03:38:33;;;;;;;16.77;9.93;;;;;;;1.18;100.00;89827.97;5030820;28;20163;-70
2022/01/09 03:40:58;;;;;;;13.65;8.43;;;;;;;1.13;100.00;89820.19;5030841;28;20106;-70
2022/01/09 03:43:24;;;;;;;16.08;8.75;;;;;;;1.17;100.00;89832.41;5030752;28;20040;-69
2022/01/09 03:45:50;;;;;;;13.48;8.90;;;;;;;1.24;100.00;89837.31;5034193;28;20029;-70
2022/01/09 03:48:15;;;;;;;13.52;7.97;;;;;;;1.35;100.00;89838.00;5034783;28;20124;-70
2022/01/09 03:50:42;;;;;;;11.90;6.88;;;;;;;1.29;100.00;89829.41;5034759;28;20036;-69
2022/01/09 03:53:11;;;;;;;7.75;5.18;;;;;;;1.27;100.00;89825.53;5034514;28;20040;-70
2022/01/09 03:55:37;;;;;;;8.75;5.75;;;;;;;1.27;100.00;89826.31;5034638;28;20531;-69
2022/01/09 03:58:03;;;;;;;9.00;5.88;;;;;;;1.39;100.00;89831.91;5034629;28;20033;-70
2022/01/09 04:00:28;;;;;;;8.25;5.68;;;;;;;1.48;100.00;89832.84;5034557;28;20034;-70
2022/01/09 04:02:54;;;;;;;8.18;5.30;;;;;;;1.53;100.00;89831.22;5034459;28;20037;-70
2022/01/09 04:05:20;;;;;;;8.60;5.85;;;;;;;1.59;100.00;89846.63;5034274;28;20045;-70
2022/01/09 04:07:46;;;;;;;10.35;6.30;;;;;;;1.61;100.00;89835.84;5034466;28;20026;-70
2022/01/09 04:10:11;;;;;;;11.07;6.60;;;;;;;1.62;100.00;89835.56;5034623;28;20124;-70
2022/01/09 04:12:47;;;;;;;11.57;7.07;;;;;;;1.50;100.00;89841.22;5034164;28;20477;-70
2022/01/09 04:15:15;;;;;;;12.13;7.38;;;;;;;1.44;100.00;89839.72;5034275;28;20021;-70
2022/01/09 04:20:08;;;;;;;13.45;7.60;;;;;;;1.53;100.00;89834.63;5034191;28;20116;-70
2022/01/09 04:22:34;;;;;;;12.10;7.88;;;;;;;1.71;100.00;89838.31;5034125;28;20030;-70
2022/01/09 04:25:00;;;;;;;11.50;7.55;;;;;;;1.85;100.00;89841.81;5034118;28;20071;-70
2022/01/09 04:27:25;;;;;;;16.48;7.95;;;;;;;2.01;100.00;89837.16;5034070;28;20411;-70
2022/01/09 04:29:51;;;;;;;13.10;9.02;;;;;;;1.92;100.00;89836.25;5033954;28;20036;-70
2022/01/09 04:32:17;;;;;;;13.30;7.65;;;;;;;1.87;100.00;89828.41;5033803;28;20072;-70
2022/01/09 04:34:42;;;;;;;11.40;7.03;;;;;;;1.94;100.00;89834.13;5033955;28;20056;-70
2022/01/09 04:37:08;;;;;;;11.13;6.53;;;;;;;1.94;100.00;89832.25;5033905;28;20029;-70
2022/01/09 04:39:33;;;;;;;11.88;8.00;;;;;;;2.00;100.00;89825.09;5033876;28;20543;-70
2022/01/09 04:41:59;;;;;;;13.85;7.40;;;;;;;1.98;100.00;89825.38;5033692;28;20036;-70
2022/01/09 04:44:25;;;;;;;19.35;11.38;;;;;;;1.99;100.00;89815.69;5033776;28;20090;-70
2022/01/09 04:46:59;;;;;;;26.15;13.80;;;;;;;2.04;100.00;89815.59;5033645;28;20034;-70
2022/01/09 04:49:28;;;;;;;19.35;10.90;;;;;;;2.03;100.00;89817.44;5033621;28;20038;-70
2022/01/09 04:51:55;;;;;;;15.73;9.38;;;;;;;1.94;100.00;89819.16;5033393;28;20087;-70
2022/01/09 04:54:21;;;;;;;13.25;8.32;;;;;;;1.82;100.00;89810.16;5033553;28;20476;-70
2022/01/09 04:56:46;;;;;;;10.38;6.90;;;;;;;1.76;100.00;89819.94;5032565;28;20030;-70
2022/01/09 04:59:12;;;;;;;10.35;6.25;;;;;;;1.72;100.00;89816.28;5033538;28;20096;-70
2022/01/09 05:01:37;;;;;;;9.43;5.95;;;;;;;1.69;100.00;89807.16;5033321;28;20029;-71
2022/01/09 05:04:03;;;;;;;10.32;6.80;;;;;;;1.64;100.00;89803.84;5033421;28;20029;-70
2022/01/09 05:06:28;;;;;;;13.18;9.15;;;;;;;1.54;100.00;89803.94;5033098;28;20061;-70
2022/01/09 05:08:54;;;;;;;29.60;15.52;;;;;;;1.53;100.00;89808.41;5033312;28;20017;-70
2022/01/09 05:11:20;;;;;;;25.55;15.20;;;;;;;1.60;100.00;89814.09;5033299;28;20036;-70
2022/01/09 05:13:45;;;;;;;23.75;13.20;;;;;;;1.41;100.00;89808.03;5033172;28;20013;-70
2022/01/09 05:16:11;;;;;;;21.42;13.27;;;;;;;1.41;100.00;89814.06;5033221;28;20430;-70
2022/01/09 05:18:50;;;;;;;20.98;11.82;;;;;;;1.38;100.00;89816.47;5033175;28;20360;-70
2022/01/09 05:21:16;;;;;;;16.25;10.40;;;;;;;1.46;100.00;89806.16;5033118;28;20083;-70
2022/01/09 05:23:42;;;;;;;20.42;12.15;;;;;;;1.57;100.00;89814.66;5032939;28;20060;-70
2022/01/09 05:26:08;;;;;;;17.85;11.13;;;;;;;1.56;100.00;89796.59;5032949;28;20061;-70
2022/01/09 05:28:33;;;;;;;17.73;11.20;;;;;;;1.47;100.00;89805.09;5032880;28;20053;-70
2022/01/09 05:30:59;;;;;;;14.20;8.57;;;;;;;1.42;100.00;89797.31;5032915;28;20120;-70
2022/01/09 05:33:24;;;;;;;10.82;7.25;;;;;;;1.37;100.00;89801.81;5032729;28;20056;-70
2022/01/09 05:35:50;;;;;;;11.35;7.47;;;;;;;1.16;100.00;89778.47;5032636;28;20065;-70
2022/01/09 05:38:18;;;;;;;10.32;7.03;;;;;;;0.89;100.00;89779.03;5032811;28;20022;-70
2022/01/09 05:40:44;;;;;;;9.23;6.35;;;;;;;0.86;100.00;89782.22;5032777;28;20072;-70
2022/01/09 05:43:11;;;;;;;8.95;6.18;;;;;;;0.88;100.00;89782.72;5032589;28;20037;-70
2022/01/09 05:45:36;;;;;;;9.63;6.25;;;;;;;0.94;100.00;89785.28;5032872;28;20415;-70
2022/01/09 05:48:02;;;;;;;9.38;6.20;;;;;;;0.95;100.00;89792.88;5032559;28;20022;-70
2022/01/09 05:50:28;;;;;;;9.73;6.85;;;;;;;1.07;100.00;89795.88;5032475;28;20029;-70
2022/01/09 05:52:53;;;;;;;13.55;7.78;;;;;;;1.15;100.00;89791.88;5032222;28;20100;-70
2022/01/09 05:55:19;;;;;;;21.85;13.60;;;;;;;1.27;100.00;89779.16;5032409;28;20041;-70
2022/01/09 05:57:44;;;;;;;33.40;21.77;;;;;;;1.32;100.00;89780.91;5032304;28;20487;-70
2022/01/09 06:00:11;;;;;;;36.22;22.02;;;;;;;1.27;100.00;89787.00;5032301;28;20034;-70
2022/01/09 06:02:36;;;;;;;16.02;10.15;;;;;;;1.40;100.00;89788.91;5032228;28;20025;-70
2022/01/09 06:05:02;;;;;;;20.75;13.07;;;;;;;1.55;100.00;89789.78;5032111;28;20048;-70
2022/01/09 06:07:27;;;;;;;45.35;26.02;;;;;;;1.67;100.00;89785.69;5032176;28;20060;-70
2022/01/09 06:09:53;;;;;;;33.25;22.13;;;;;;;1.79;100.00;89793.16;5031929;28;20026;-70
2022/01/09 06:12:18;;;;;;;41.25;24.48;;;;;;;1.93;100.00;89780.88;5031907;28;20029;-70
2022/01/09 06:14:44;;;;;;;20.45;11.73;;;;;;;1.75;100.00;89779.06;5032058;28;20061;-70
2022/01/09 06:17:09;;;;;;;25.02;12.15;;;;;;;1.72;100.00;89769.09;5031996;28;20091;-70
2022/01/09 06:19:35;;;;;;;18.83;10.55;;;;;;;1.84;100.00;89764.22;5031946;28;20033;-70
2022/01/09 06:22:01;;;;;;;16.88;10.40;;;;;;;1.76;100.00;89759.63;5031771;28;20057;-70
2022/01/09 06:24:26;;;;;;;20.00;11.77;;;;;;;1.68;100.00;89770.75;5031878;28;20057;-70
2022/01/09 06:26:51;;;;;;;17.08;10.18;;;;;;;1.85;100.00;89773.66;5031809;28;20496;-70
2022/01/09 06:29:19;;;;;;;17.80;11.68;;;;;;;1.97;100.00;89775.84;5031697;28;20053;-70
2022/01/09 06:31:45;;;;;;;17.35;11.73;;;;;;;1.91;100.00;89769.91;5031685;28;20064;-70
2022/01/09 06:34:13;;;;;;;19.17;12.25;;;;;;;1.81;100.00;89785.78;5031595;28;20036;-69
2022/01/09 06:36:40;;;;;;;28.65;16.23;;;;;;;1.66;100.00;89785.97;5031607;28;20087;-70
2022/01/09 06:39:06;;;;;;;20.40;13.27;;;;;;;1.80;100.00;89786.84;5031528;28;20052;-70
2022/01/09 06:41:32;;;;;;;23.95;15.00;;;;;;;1.91;100.00;89798.75;5031507;28;20057;-70
2022/01/09 06:43:59;;;;;;;34.03;22.70;;;;;;;1.99;100.00;89786.81;5031821;28;20061;-71
2022/01/09 06:46:25;;;;;;;32.70;19.73;;;;;;;2.23;100.00;89803.25;5031426;28;20065;-71
2022/01/09 06:48:52;;;;;;;28.25;18.95;;;;;;;2.21;100.00;89809.84;5031493;28;20025;-70
2022/01/09 06:51:17;;;;;;;72.45;42.80;;;;;;;2.24;100.00;89796.94;5031314;28;20048;-69
2022/01/09 06:53:43;;;;;;;47.05;27.83;;;;;;;2.50;100.00;89805.19;5030420;28;20136;-69
2022/01/09 06:56:08;;;;;;;36.65;23.10;;;;;;;2.55;100.00;89807.75;5031104;28;20163;-70
2022/01/09 06:58:36;;;;;;;38.95;25.70;;;;;;;2.49;100.00;89815.97;5031308;28;20116;-69
2022/01/09 07:01:04;;;;;;;17.00;11.85;;;;;;;2.43;100.00;89810.03;5031265;28;20518;-69
2022/01/09 07:03:29;;;;;;;11.90;8.20;;;;;;;2.32;100.00;89819.13;5031174;28;20026;-69
2022/01/09 07:05:55;;;;;;;15.10;9.73;;;;;;;2.32;100.00;89814.66;5028315;28;20033;-70
2022/01/09 07:08:21;;;;;;;34.08;18.52;;;;;;;2.37;100.00;89811.19;5037152;28;20803;-69
2022/01/09 07:10:46;;;;;;;29.48;17.55;;;;;;;2.43;100.00;89793.50;5050853;28;20028;-69
2022/01/09 07:13:12;;;;;;;23.20;14.43;;;;;;;2.67;100.00;89805.41;5033540;28;20064;-69
2022/01/09 07:15:38;;;;;;;19.30;12.95;;;;;;;2.80;100.00;89798.66;5022120;28;20020;-70
2022/01/09 07:18:03;;;;;;;27.73;16.70;;;;;;;2.92;100.00;89792.94;5011301;28;20038;-71
2022/01/09 07:20:29;;;;;;;30.50;17.60;;;;;;;2.90;100.00;89789.81;5009986;28;20045;-71
2022/01/09 07:22:55;;;;;;;30.10;18.88;;;;;;;2.82;100.00;89779.97;5010997;28;20590;-70
2022/01/09 07:25:21;;;;;;;55.28;27.02;;;;;;;2.80;100.00;89774.22;5012410;28;20474;-70
2022/01/09 07:27:47;;;;;;;61.17;31.63;;;;;;;2.80;100.00;89768.97;5030256;28;20025;-70
2022/01/09 07:30:12;;;;;;;69.13;36.42;;;;;;;2.73;100.00;89768.59;5030645;28;20087;-70
2022/01/09 07:32:40;;;;;;;57.40;30.83;;;;;;;3.07;100.00;89773.50;5029891;28;20540;-71
2022/01/09 07:35:07;;;;;;;54.10;31.20;;;;;;;3.34;100.00;89770.09;5029369;28;20026;-71
2022/01/09 07:37:32;;;;;;;34.55;20.42;;;;;;;3.48;100.00;89771.63;5030065;28;20032;-70
2022/01/09 07:39:58;;;;;;;30.05;16.17;;;;;;;3.80;100.00;89762.81;5019500;28;20021;-71
2022/01/09 07:42:24;;;;;;;22.42;13.63;;;;;;;3.86;100.00;89766.88;5020446;28;20025;-71
2022/01/09 07:44:50;;;;;;;23.23;13.82;;;;;;;3.89;100.00;89774.19;5027163;28;20033;-71
2022/01/09 07:47:16;;;;;;;21.15;12.45;;;;;;;3.79;100.00;89757.84;5029731;28;20053;-71
2022/01/09 07:49:41;;;;;;;19.25;12.15;;;;;;;3.75;100.00;89770.03;5029678;28;20029;-71
2022/01/09 07:52:07;;;;;;;19.80;13.02;;;;;;;3.94;100.00;89772.50;5029897;28;20052;-72
2022/01/09 07:54:33;;;;;;;24.00;13.90;;;;;;;4.21;100.00;89764.53;5029992;28;20388;-70
2022/01/09 07:56:58;;;;;;;23.67;15.35;;;;;;;4.20;100.00;89757.72;5022134;28;20043;-71
2022/01/09 07:59:24;;;;;;;23.80;14.68;;;;;;;3.99;100.00;89760.03;5027792;28;20034;-71
2022/01/09 08:01:50;;;;;;;25.10;15.48;;;;;;;4.05;100.00;89763.31;5028988;28;20032;-71
2022/01/09 08:04:16;;;;;;;27.40;16.33;;;;;;;4.09;100.00;89753.75;5019131;28;20503;-71
2022/01/09 08:06:41;;;;;;;33.97;21.23;;;;;;;4.38;100.00;89754.13;5012503;28;20054;-72
2022/01/09 08:09:07;;;;;;;88.57;48.75;;;;;;;4.17;100.00;89756.47;5029958;28;20488;-70
2022/01/09 08:11:32;;;;;;;58.03;37.50;;;;;;;4.14;100.00;89753.66;5029621;28;20036;-71
2022/01/09 08:13:58;;;;;;;48.28;29.25;;;;;;;4.34;100.00;89765.56;5029892;28;20065;-71
2022/01/09 08:16:23;;;;;;;53.20;32.58;;;;;;;3.97;100.00;89756.94;5030587;28;20066;-71
2022/01/09 08:18:49;;;;;;;49.63;30.90;;;;;;;3.75;100.00;89757.66;5030246;28;20033;-71
2022/01/09 08:21:19;;;;;;;67.07;39.45;;;;;;;3.67;100.00;89758.34;5029776;28;20029;-70
2022/01/09 08:23:47;;;;;;;31.90;20.40;;;;;;;3.62;100.00;89761.06;5029807;28;20424;-70
2022/01/09 08:26:13;;;;;;;24.20;15.80;;;;;;;3.60;100.00;89761.38;5031110;28;20025;-69
2022/01/09 08:28:42;;;;;;;16.90;10.50;;;;;;;3.57;100.00;89748.03;5049728;28;20029;-69
2022/01/09 08:31:08;;;;;;;15.57;9.95;;;;;;;3.52;100.00;89766.56;5050605;28;20040;-69
2022/01/09 08:33:34;;;;;;;18.42;10.60;;;;;;;3.23;100.00;89764.25;5053602;28;20050;-69
2022/01/09 08:35:59;;;;;;;25.85;18.00;;;;;;;3.27;100.00;89766.00;5052906;28;20115;-69
2022/01/09 08:38:25;;;;;;;21.67;12.85;;;;;;;3.36;100.00;89763.47;5053582;28;20031;-69
2022/01/09 08:40:50;;;;;;;36.80;18.90;;;;;;;3.29;100.00;89766.47;5053519;28;20057;-69
2022/01/09 08:43:16;;;;;;;11.77;8.23;;;;;;;3.15;100.00;89770.94;5053074;28;20025;-69
2022/01/09 08:45:42;;;;;;;40.05;23.70;;;;;;;3.34;100.00;89755.09;5053568;28;20478;-69
2022/01/09 08:48:07;;;;;;;12.52;8.85;;;;;;;3.26;100.00;89763.66;5053020;28;20036;-69
2022/01/09 08:50:33;;;;;;;23.10;12.25;;;;;;;3.16;100.00;89759.38;5033713;28;20031;-69
2022/01/09 08:52:59;;;;;;;13.25;8.65;;;;;;;3.11;100.00;89754.22;5033169;28;20026;-70
2022/01/09 08:55:24;;;;;;;25.63;16.23;;;;;;;3.27;100.00;89755.47;5033369;28;20487;-69
2022/01/09 08:57:50;;;;;;;17.55;12.23;;;;;;;3.18;100.00;89745.97;5032937;28;20495;-69
2022/01/09 09:00:18;;;;;;;26.00;16.58;;;;;;;3.56;100.00;89743.84;5032914;28;20029;-69
2022/01/09 09:02:44;;;;;;;36.35;22.70;;;;;;;3.59;100.00;89744.03;5033236;28;20029;-70
2022/01/09 09:05:10;;;;;;;10.50;8.60;;;;;;;3.32;100.00;89740.69;5032412;28;20132;-69
2022/01/09 09:07:35;;;;;;;15.88;9.32;;;;;;;3.11;100.00;89746.34;5033256;28;20048;-70
2022/01/09 09:10:04;;;;;;;16.80;10.98;;;;;;;3.19;100.00;89743.03;5031639;28;20029;-69
2022/01/09 09:12:31;;;;;;;12.65;8.52;;;;;;;3.10;100.00;89738.75;5032277;28;20059;-69
2022/01/09 09:15:03;;;;;;;12.75;8.85;;;;;;;3.15;100.00;89746.53;5033063;28;20040;-69
2022/01/09 09:17:30;;;;;;;11.93;8.47;;;;;;;3.20;100.00;89741.97;5032983;28;20030;-69
2022/01/09 09:19:56;;;;;;;26.85;18.23;;;;;;;3.42;100.00;89741.25;5032543;28;20091;-70
2022/01/09 09:22:22;;;;;;;31.63;21.77;;;;;;;3.23;100.00;89745.84;5031728;28;20042;-68
2022/01/09 09:24:48;;;;;;;33.63;23.88;;;;;;;3.03;100.00;89739.16;5032387;28;20040;-70
2022/01/09 09:27:13;;;;;;;35.60;22.08;;;;;;;2.94;100.00;89730.38;5032436;28;20025;-69
2022/01/09 09:29:39;;;;;;;37.80;22.38;;;;;;;2.95;100.00;89724.81;5029479;28;20040;-70
2022/01/09 09:32:05;;;;;;;24.27;16.55;;;;;;;3.07;100.00;89732.22;5032449;28;20480;-69
2022/01/09 09:34:30;;;;;;;21.00;14.27;;;;;;;3.16;100.00;89725.22;5032421;28;20034;-69
2022/01/09 09:36:56;;;;;;;21.92;13.70;;;;;;;3.04;100.00;89726.78;5032143;28;20080;-69
2022/01/09 09:39:21;;;;;;;19.52;13.13;;;;;;;3.07;100.00;89729.59;5032007;28;20033;-69
2022/01/09 09:41:48;;;;;;;23.05;13.38;;;;;;;3.05;100.00;89715.22;5032095;28;20055;-69
2022/01/09 09:44:13;;;;;;;22.33;13.82;;;;;;;3.11;100.00;89714.03;5032377;28;20037;-69
2022/01/09 09:46:39;;;;;;;38.17;21.70;;;;;;;3.39;100.00;89707.69;5032260;28;20029;-69
2022/01/09 09:49:05;;;;;;;28.33;17.67;;;;;;;3.53;100.00;89702.38;5032402;28;20411;-69
2022/01/09 09:51:31;;;;;;;33.88;20.63;;;;;;;3.42;100.00;89686.03;5031883;28;20064;-69
2022/01/09 09:53:58;;;;;;;21.95;13.63;;;;;;;3.38;100.00;89690.34;5031750;28;20104;-69
2022/01/09 09:56:24;;;;;;;23.10;15.18;;;;;;;3.48;100.00;89686.75;5032110;28;20036;-69
2022/01/09 09:58:51;;;;;;;16.80;11.75;;;;;;;3.43;100.00;89671.06;5032161;28;20037;-68
2022/01/09 10:01:23;;;;;;;22.13;14.20;;;;;;;3.27;100.00;89679.25;5031732;28;20030;-69
2022/01/09 10:03:57;;;;;;;27.38;15.85;;;;;;;3.54;100.00;89670.53;5030672;28;20040;-68
2022/01/09 10:06:43;;;;;;;20.65;14.43;;;;;;;3.85;100.00;89668.00;5031831;28;20051;-69
2022/01/09 10:09:13;;;;;;;18.25;10.90;;;;;;;3.58;100.00;89666.25;5032041;28;20034;-69
2022/01/09 10:11:57;;;;;;;75.43;42.83;;;;;;;3.53;100.00;89658.47;5031824;28;20030;-71
2022/01/09 10:14:31;;;;;;;44.63;22.60;;;;;;;4.00;100.00;89650.31;5031065;28;20522;-71
2022/01/09 10:17:05;;;;;;;48.33;22.50;;;;;;;4.22;100.00;89643.16;5031611;28;20033;-71
2022/01/09 10:19:48;;;;;;;166.07;73.97;;;;;;;4.82;100.00;89652.41;5031775;28;20112;-71
2022/01/09 10:22:33;;;;;;;11.65;8.30;;;;;;;4.58;100.00;89649.38;5031167;28;20048;-71
2022/01/09 10:25:38;;;;;;;11.27;8.00;;;;;;;4.60;100.00;89644.59;5031725;28;20867;-70
2022/01/09 10:28:06;;;;;;;15.32;11.15;;;;;;;5.02;100.00;89638.69;5031132;28;20045;-71
2022/01/09 10:30:51;;;;;;;10.50;7.10;;;;;;;4.49;100.00;89647.47;5031311;28;20496;-71
2022/01/09 10:33:21;;;;;;;8.35;5.90;;;;;;;4.29;100.00;89655.13;5031487;28;20029;-70
2022/01/09 10:35:48;;;;;;;11.43;7.32;;;;;;;4.04;100.00;89640.72;5031612;28;20036;-69
2022/01/09 10:38:25;;;;;;;15.00;8.95;;;;;;;3.75;100.00;89644.56;5031320;28;20562;-69
2022/01/09 10:40:56;;;;;;;13.43;7.68;;;;;;;3.67;100.00;89649.78;5021942;28;20021;-70
2022/01/09 10:43:32;;;;;;;13.70;8.05;;;;;;;3.69;100.00;89650.25;5011367;28;20045;-69
2022/01/09 10:46:02;;;;;;;12.05;7.38;;;;;;;3.82;100.00;89644.94;5011011;28;20037;-70
2022/01/09 10:48:38;;;;;;;11.45;6.63;;;;;;;4.22;100.00;89645.78;5011356;28;20499;-69
2022/01/09 10:51:07;;;;;;;21.48;10.70;;;;;;;4.11;100.00;89641.09;5010973;28;20764;-71
2022/01/09 10:53:37;;;;;;;13.45;8.98;;;;;;;4.00;100.00;89635.28;5010655;28;20037;-71
2022/01/09 10:56:02;;;;;;;21.63;13.27;;;;;;;4.06;100.00;89635.94;5010398;28;20492;-71
2022/01/09 10:58:29;;;;;;;23.83;15.55;;;;;;;4.16;100.00;89622.53;5029695;28;20087;-69
2022/01/09 11:01:13;;;;;;;27.67;17.58;;;;;;;4.13;100.00;89620.53;5037621;28;20029;-68
2022/01/09 11:03:41;;;;;;;17.92;10.63;;;;;;;3.81;100.00;89622.34;5050695;28;20396;-71
2022/01/09 11:06:08;;;;;;;34.00;23.33;;;;;;;3.85;100.00;89612.75;5050113;28;20044;-68
2022/01/09 11:08:35;;;;;;;14.25;9.30;;;;;;;3.91;100.00;89611.56;5050617;28;20037;-68
2022/01/09 11:11:06;;;;;;;15.65;8.93;;;;;;;3.78;100.00;89611.63;5050097;28;20084;-68
2022/01/09 11:13:35;;;;;;;15.00;9.57;;;;;;;4.17;100.00;89611.72;5050080;28;20036;-68
2022/01/09 11:18:45;;;;;;;15.02;9.23;;;;;;;4.16;100.00;89598.84;5050679;28;20032;-68
2022/01/09 11:21:12;;;;;;;16.42;9.43;;;;;;;4.19;100.00;89600.88;5049980;28;20032;-68
2022/01/09 11:23:52;;;;;;;18.75;10.20;;;;;;;4.51;100.00;89594.50;5050167;28;20400;-68
2022/01/09 11:26:19;;;;;;;15.02;10.30;;;;;;;4.39;100.00;89587.19;5050244;28;20060;-68